Time;durP1;ratioP1;P1;durP2;ratioP2;P2;SDS_P1;SDS_P2;PMS_P1;PMS_P2;Temp;Humidity;BMP_temperature;BMP_pressure;BME280_temperature;BME280_humidity;BME280_pressure;Samples;Min_cycle;Max_cycle;Signal;HPM_P1;HPM_P2
2022/10/14 00:02:04;;;;;;;90.97;55.47;;;;;;;;;;5029190;28;20273;-44
2022/10/14 00:04:30;;;;;;;91.53;55.57;;;;;;;;;;5030493;28;20230;-45
2022/10/14 00:06:56;;;;;;;102.53;60.43;;;;;;;;;;5034896;28;20184;-44
2022/10/14 00:09:23;;;;;;;88.67;55.87;;;;;;;;;;5027483;28;20707;-44
2022/10/14 00:11:49;;;;;;;88.33;55.30;;;;;;;;;;5029442;28;20607;-44
2022/10/14 00:14:17;;;;;;;94.83;56.73;;;;;;;;;;5029129;28;20486;-45
2022/10/14 00:16:45;;;;;;;93.67;57.60;;;;;;;;;;5026263;28;20188;-44
2022/10/14 00:19:12;;;;;;;92.47;56.17;;;;;;;;;;5026005;28;20211;-43
2022/10/14 00:21:39;;;;;;;89.50;54.80;;;;;;;;;;5031803;28;20578;-44
2022/10/14 00:24:06;;;;;;;93.17;58.40;;;;;;;;;;5026640;28;20180;-42
2022/10/14 00:26:34;;;;;;;82.57;53.20;;;;;;;;;;5022616;28;20747;-43
2022/10/14 00:29:01;;;;;;;86.00;53.47;;;;;;;;;;5027121;28;20183;-43
2022/10/14 00:31:28;;;;;;;78.23;50.30;;;;;;;;;;5031518;28;20576;-43
2022/10/14 00:33:54;;;;;;;82.63;51.00;;;;;;;;;;5025273;28;20308;-43
2022/10/14 00:36:21;;;;;;;75.70;49.10;;;;;;;;;;5023010;28;20183;-41
2022/10/14 00:38:48;;;;;;;75.37;50.17;;;;;;;;;;5023900;28;20192;-44
2022/10/14 00:41:16;;;;;;;74.17;46.63;;;;;;;;;;5023415;28;20232;-42
2022/10/14 00:43:53;;;;;;;80.33;50.50;;;;;;;;;;5024607;28;20858;-43
2022/10/14 00:46:19;;;;;;;86.27;52.17;;;;;;;;;;5031445;28;20665;-42
2022/10/14 00:48:45;;;;;;;83.87;51.20;;;;;;;;;;5025128;28;20468;-42
2022/10/14 00:51:12;;;;;;;77.43;48.70;;;;;;;;;;5027844;28;20946;-43
2022/10/14 00:53:39;;;;;;;83.53;51.63;;;;;;;;;;5024576;28;20656;-42
2022/10/14 00:56:07;;;;;;;82.50;50.60;;;;;;;;;;5025320;28;20180;-43
2022/10/14 00:58:33;;;;;;;75.03;49.80;;;;;;;;;;5023788;28;20191;-42
2022/10/14 01:00:59;;;;;;;87.67;54.47;;;;;;;;;;5021261;28;20253;-43
2022/10/14 01:03:25;;;;;;;80.00;51.73;;;;;;;;;;5026623;28;20176;-42
2022/10/14 01:05:59;;;;;;;77.53;50.43;;;;;;;;;;5025575;28;20578;-43
2022/10/14 01:08:35;;;;;;;73.37;48.37;;;;;;;;;;5023794;28;20175;-42
2022/10/14 01:11:03;;;;;;;80.50;47.77;;;;;;;;;;5026028;28;20270;-42
2022/10/14 01:13:34;;;;;;;85.60;53.30;;;;;;;;;;5023595;28;20175;-43
2022/10/14 01:16:17;;;;;;;85.57;53.60;;;;;;;;;;5024134;28;20702;-43
2022/10/14 01:18:59;;;;;;;95.43;57.70;;;;;;;;;;5023388;28;20234;-43
2022/10/14 01:21:28;;;;;;;97.97;58.90;;;;;;;;;;5026113;28;20171;-42
2022/10/14 01:24:04;;;;;;;94.73;56.33;;;;;;;;;;5026723;28;20313;-43
2022/10/14 01:26:33;;;;;;;94.73;57.30;;;;;;;;;;5023112;28;20200;-42
2022/10/14 01:29:17;;;;;;;104.93;62.53;;;;;;;;;;5022752;28;20187;-42
2022/10/14 01:31:45;;;;;;;123.30;72.03;;;;;;;;;;5024074;28;20176;-43
2022/10/14 01:34:13;;;;;;;120.77;70.80;;;;;;;;;;5023588;28;20703;-42
2022/10/14 01:37:01;;;;;;;114.90;69.40;;;;;;;;;;5027752;28;20214;-43
2022/10/14 01:39:31;;;;;;;109.33;64.60;;;;;;;;;;5023271;28;20215;-44
2022/10/14 01:42:36;;;;;;;97.60;60.10;;;;;;;;;;5023846;28;20390;-42
2022/10/14 01:45:09;;;;;;;98.03;59.87;;;;;;;;;;4978171;28;20181;-45
2022/10/14 01:47:35;;;;;;;109.70;64.43;;;;;;;;;;4963710;28;20450;-42
2022/10/14 01:50:22;;;;;;;95.23;60.17;;;;;;;;;;5002860;28;20195;-44
2022/10/14 01:52:55;;;;;;;95.90;57.87;;;;;;;;;;5029523;28;20830;-44
2022/10/14 01:55:24;;;;;;;92.13;56.93;;;;;;;;;;5024611;28;20839;-43
2022/10/14 01:57:51;;;;;;;87.70;53.53;;;;;;;;;;5027116;28;20436;-43
2022/10/14 02:00:18;;;;;;;85.23;51.40;;;;;;;;;;5021379;28;20211;-42
2022/10/14 02:02:44;;;;;;;73.77;46.27;;;;;;;;;;5024812;28;20308;-42
2022/10/14 02:05:15;;;;;;;72.80;46.60;;;;;;;;;;5029694;28;20727;-43
2022/10/14 02:07:44;;;;;;;73.93;44.93;;;;;;;;;;5027044;28;20338;-43
2022/10/14 02:10:22;;;;;;;74.70;45.43;;;;;;;;;;5027884;28;20186;-43
2022/10/14 02:13:01;;;;;;;67.03;43.70;;;;;;;;;;5028424;28;20239;-45
2022/10/14 02:15:31;;;;;;;64.03;42.43;;;;;;;;;;5023203;28;20168;-44
2022/10/14 02:18:03;;;;;;;65.23;43.50;;;;;;;;;;5026751;28;20219;-43
2022/10/14 02:20:33;;;;;;;67.07;43.10;;;;;;;;;;5027098;28;20167;-44
2022/10/14 02:23:06;;;;;;;77.97;46.53;;;;;;;;;;5027785;28;20172;-42
2022/10/14 02:25:34;;;;;;;71.60;44.73;;;;;;;;;;5030944;28;20168;-42
2022/10/14 02:28:01;;;;;;;72.07;45.73;;;;;;;;;;5022401;28;20194;-44
2022/10/14 02:30:29;;;;;;;74.43;46.83;;;;;;;;;;5025028;28;20415;-43
2022/10/14 02:32:55;;;;;;;95.40;56.20;;;;;;;;;;5025576;28;20168;-43
2022/10/14 02:35:23;;;;;;;100.10;61.20;;;;;;;;;;5030383;28;20179;-43
2022/10/14 02:37:51;;;;;;;107.37;66.50;;;;;;;;;;5026381;28;20697;-44
2022/10/14 02:40:20;;;;;;;134.10;78.07;;;;;;;;;;5025000;28;20286;-43
2022/10/14 02:42:46;;;;;;;115.70;71.90;;;;;;;;;;5023377;28;20506;-43
2022/10/14 02:45:13;;;;;;;115.10;67.87;;;;;;;;;;5027026;28;20179;-43
2022/10/14 02:47:39;;;;;;;103.77;62.77;;;;;;;;;;5030920;28;20770;-43
2022/10/14 02:50:05;;;;;;;95.57;61.47;;;;;;;;;;5025267;28;20179;-43
2022/10/14 02:52:31;;;;;;;102.87;65.30;;;;;;;;;;5022590;28;20859;-42
2022/10/14 02:54:57;;;;;;;102.13;62.13;;;;;;;;;;5027506;28;20741;-42
2022/10/14 02:57:24;;;;;;;104.30;61.67;;;;;;;;;;5029277;28;20703;-43
2022/10/14 02:59:50;;;;;;;95.43;59.90;;;;;;;;;;5029318;28;20168;-44
2022/10/14 03:02:16;;;;;;;114.37;62.97;;;;;;;;;;5029081;28;20996;-42
2022/10/14 03:04:42;;;;;;;90.83;54.67;;;;;;;;;;5026373;28;20176;-43
2022/10/14 03:07:08;;;;;;;98.23;59.00;;;;;;;;;;5023775;28;20168;-43
2022/10/14 03:09:34;;;;;;;96.67;57.97;;;;;;;;;;5030395;28;20256;-44
2022/10/14 03:12:01;;;;;;;94.37;58.20;;;;;;;;;;5031541;28;20183;-44
2022/10/14 03:14:27;;;;;;;104.93;61.57;;;;;;;;;;5027368;28;20183;-43
2022/10/14 03:16:53;;;;;;;88.37;56.83;;;;;;;;;;5028930;28;20356;-42
2022/10/14 03:19:19;;;;;;;102.37;62.07;;;;;;;;;;5028869;28;20568;-43
2022/10/14 03:21:46;;;;;;;108.33;65.43;;;;;;;;;;5030623;28;20262;-43
2022/10/14 03:24:12;;;;;;;109.07;66.20;;;;;;;;;;5027965;28;20168;-42
2022/10/14 03:26:38;;;;;;;97.77;61.83;;;;;;;;;;5028694;28;20580;-43
2022/10/14 03:29:04;;;;;;;105.13;64.47;;;;;;;;;;5027198;28;20175;-44
2022/10/14 03:31:30;;;;;;;107.53;64.63;;;;;;;;;;5035746;28;21176;-44
2022/10/14 03:33:56;;;;;;;92.47;57.33;;;;;;;;;;5031301;28;20190;-43
2022/10/14 03:36:22;;;;;;;93.17;58.23;;;;;;;;;;5028886;28;20175;-44
2022/10/14 03:38:49;;;;;;;83.13;50.93;;;;;;;;;;5025049;28;20560;-43
2022/10/14 03:41:15;;;;;;;80.20;50.00;;;;;;;;;;5029187;28;21080;-43
2022/10/14 03:43:41;;;;;;;74.93;48.83;;;;;;;;;;5028666;28;20836;-43
2022/10/14 03:46:07;;;;;;;76.83;46.83;;;;;;;;;;5029288;28;20579;-44
2022/10/14 03:48:33;;;;;;;93.57;53.73;;;;;;;;;;5027362;28;20783;-42
2022/10/14 03:50:59;;;;;;;90.17;53.87;;;;;;;;;;5022040;28;21099;-44
2022/10/14 03:53:26;;;;;;;82.17;52.43;;;;;;;;;;5028257;28;20718;-43
2022/10/14 03:55:52;;;;;;;83.23;53.43;;;;;;;;;;5040634;28;20228;-43
2022/10/14 03:58:21;;;;;;;87.17;55.90;;;;;;;;;;5027093;28;20238;-43
2022/10/14 04:00:47;;;;;;;96.03;56.87;;;;;;;;;;5027637;28;20172;-42
2022/10/14 04:03:13;;;;;;;94.83;58.83;;;;;;;;;;5022088;28;20168;-42
2022/10/14 04:05:39;;;;;;;92.63;55.30;;;;;;;;;;5021810;28;20182;-43
2022/10/14 04:08:07;;;;;;;91.60;56.63;;;;;;;;;;5012523;28;20237;-44
2022/10/14 04:10:33;;;;;;;95.63;57.17;;;;;;;;;;5041484;28;20404;-44
2022/10/14 04:12:59;;;;;;;102.67;61.03;;;;;;;;;;5029363;28;20276;-43
2022/10/14 04:15:25;;;;;;;102.30;61.27;;;;;;;;;;5027230;28;21035;-44
2022/10/14 04:17:51;;;;;;;97.53;60.37;;;;;;;;;;5024137;28;20753;-44
2022/10/14 04:20:18;;;;;;;109.37;63.63;;;;;;;;;;5028829;28;20172;-42
2022/10/14 04:22:44;;;;;;;102.13;60.40;;;;;;;;;;5031927;28;20160;-42
2022/10/14 04:25:10;;;;;;;103.33;62.73;;;;;;;;;;5032163;28;20654;-43
2022/10/14 04:27:36;;;;;;;91.23;57.50;;;;;;;;;;5024841;28;20291;-42
2022/10/14 04:30:03;;;;;;;95.70;56.37;;;;;;;;;;5028286;28;20588;-43
2022/10/14 04:32:29;;;;;;;88.47;54.40;;;;;;;;;;5026373;28;21587;-43
2022/10/14 04:34:56;;;;;;;88.03;52.87;;;;;;;;;;5026207;28;20537;-42
2022/10/14 04:37:22;;;;;;;80.47;49.90;;;;;;;;;;5027916;28;20179;-44
2022/10/14 04:39:48;;;;;;;85.37;51.37;;;;;;;;;;5028645;28;20645;-44
2022/10/14 04:42:14;;;;;;;84.73;52.37;;;;;;;;;;5021435;28;20566;-43
2022/10/14 04:44:40;;;;;;;84.97;52.90;;;;;;;;;;5025551;28;20219;-43
2022/10/14 04:47:06;;;;;;;89.07;52.70;;;;;;;;;;5028216;28;20842;-44
2022/10/14 04:49:33;;;;;;;85.17;52.60;;;;;;;;;;5025074;28;20202;-44
2022/10/14 04:51:59;;;;;;;86.83;54.90;;;;;;;;;;5024538;28;20176;-44
2022/10/14 04:54:25;;;;;;;94.87;56.03;;;;;;;;;;5022425;28;20777;-43
2022/10/14 04:56:51;;;;;;;81.93;50.77;;;;;;;;;;5025680;28;20632;-43
2022/10/14 04:59:17;;;;;;;80.20;52.23;;;;;;;;;;5026944;28;20870;-42
2022/10/14 05:01:44;;;;;;;84.57;53.70;;;;;;;;;;5025494;28;20699;-44
2022/10/14 05:04:10;;;;;;;84.70;52.30;;;;;;;;;;5023252;28;20180;-42
2022/10/14 05:06:37;;;;;;;98.80;60.23;;;;;;;;;;5027303;28;20841;-43
2022/10/14 05:09:04;;;;;;;116.60;66.77;;;;;;;;;;5027049;28;20325;-44
2022/10/14 05:11:30;;;;;;;123.80;72.00;;;;;;;;;;5026443;28;20641;-42
2022/10/14 05:13:56;;;;;;;104.40;62.50;;;;;;;;;;5026708;28;20302;-44
2022/10/14 05:16:23;;;;;;;118.67;71.07;;;;;;;;;;5024554;28;20292;-43
2022/10/14 05:18:50;;;;;;;122.87;69.13;;;;;;;;;;5023287;28;20204;-43
2022/10/14 05:21:16;;;;;;;115.03;65.83;;;;;;;;;;5036975;28;20194;-44
2022/10/14 05:23:42;;;;;;;117.33;69.63;;;;;;;;;;5019436;28;20268;-43
2022/10/14 05:26:09;;;;;;;115.87;66.97;;;;;;;;;;5018233;28;20623;-43
2022/10/14 05:28:39;;;;;;;113.60;66.67;;;;;;;;;;5025137;28;20206;-43
2022/10/14 05:31:05;;;;;;;103.33;60.70;;;;;;;;;;5027968;28;20207;-42
2022/10/14 05:33:32;;;;;;;105.40;61.83;;;;;;;;;;5028160;28;20179;-44
2022/10/14 05:35:58;;;;;;;109.90;63.77;;;;;;;;;;5024823;28;20191;-43
2022/10/14 05:38:25;;;;;;;116.40;61.60;;;;;;;;;;5021402;28;20773;-44
2022/10/14 05:40:52;;;;;;;97.97;57.00;;;;;;;;;;5020035;28;20237;-43
2022/10/14 05:43:18;;;;;;;95.83;57.63;;;;;;;;;;5027618;28;20176;-43
2022/10/14 05:45:45;;;;;;;101.73;57.20;;;;;;;;;;5028073;28;20409;-43
2022/10/14 05:48:14;;;;;;;100.67;57.33;;;;;;;;;;5026944;28;20299;-43
2022/10/14 05:50:42;;;;;;;98.13;55.43;;;;;;;;;;5029835;28;20203;-43
2022/10/14 05:53:08;;;;;;;87.87;52.73;;;;;;;;;;5020757;28;20749;-42
2022/10/14 05:55:35;;;;;;;86.30;50.50;;;;;;;;;;5025309;28;20419;-44
2022/10/14 05:58:01;;;;;;;86.00;50.10;;;;;;;;;;5020140;28;20506;-44
2022/10/14 06:00:27;;;;;;;88.33;50.50;;;;;;;;;;5023355;28;20647;-43
2022/10/14 06:02:54;;;;;;;85.87;50.53;;;;;;;;;;5025350;28;20233;-44
2022/10/14 06:05:20;;;;;;;90.80;52.00;;;;;;;;;;5028532;28;20229;-43
2022/10/14 06:07:46;;;;;;;93.23;52.40;;;;;;;;;;5025463;28;20182;-45
2022/10/14 06:10:12;;;;;;;84.80;49.73;;;;;;;;;;5021462;28;20207;-43
2022/10/14 06:12:39;;;;;;;81.27;48.93;;;;;;;;;;5022460;28;20294;-43
2022/10/14 06:15:06;;;;;;;81.17;48.83;;;;;;;;;;5012867;28;20196;-43
2022/10/14 06:17:33;;;;;;;92.50;51.37;;;;;;;;;;5022936;28;20714;-43
2022/10/14 06:19:59;;;;;;;81.97;48.30;;;;;;;;;;5022618;28;20713;-44
2022/10/14 06:22:25;;;;;;;74.93;47.70;;;;;;;;;;5026193;28;20172;-44
2022/10/14 06:24:52;;;;;;;82.57;50.87;;;;;;;;;;5020970;28;20199;-44
2022/10/14 06:27:19;;;;;;;86.57;50.90;;;;;;;;;;5018232;28;20195;-44
2022/10/14 06:29:45;;;;;;;88.87;51.00;;;;;;;;;;5021423;28;20254;-45
2022/10/14 06:32:12;;;;;;;78.47;49.10;;;;;;;;;;5023752;28;20183;-44
2022/10/14 06:34:38;;;;;;;89.80;52.17;;;;;;;;;;5024165;28;20624;-43
2022/10/14 06:37:04;;;;;;;86.37;50.23;;;;;;;;;;5025006;28;20180;-44
2022/10/14 06:39:31;;;;;;;80.17;49.37;;;;;;;;;;5025872;28;20207;-42
2022/10/14 06:41:57;;;;;;;82.00;49.80;;;;;;;;;;5026329;28;20175;-43
2022/10/14 06:44:23;;;;;;;76.00;47.37;;;;;;;;;;5021867;28;20919;-43
2022/10/14 06:46:49;;;;;;;82.23;46.97;;;;;;;;;;5024981;28;20180;-43
2022/10/14 06:49:16;;;;;;;80.77;46.57;;;;;;;;;;5024721;28;20179;-44
2022/10/14 06:51:42;;;;;;;72.57;42.77;;;;;;;;;;5022192;28;20284;-43
2022/10/14 06:54:08;;;;;;;71.00;42.57;;;;;;;;;;5023415;28;20876;-44
2022/10/14 06:56:38;;;;;;;66.97;41.57;;;;;;;;;;5024208;28;20371;-43
2022/10/14 06:59:04;;;;;;;64.47;39.53;;;;;;;;;;5022473;28;20424;-43
2022/10/14 07:01:31;;;;;;;57.03;37.97;;;;;;;;;;5025482;28;20207;-44
2022/10/14 07:03:57;;;;;;;58.37;36.90;;;;;;;;;;5020986;28;20714;-45
2022/10/14 07:06:23;;;;;;;59.70;37.40;;;;;;;;;;5020998;28;20184;-45
2022/10/14 07:08:49;;;;;;;63.37;40.13;;;;;;;;;;5020824;28;20226;-45
2022/10/14 07:11:16;;;;;;;63.57;40.73;;;;;;;;;;5023708;28;20715;-44
2022/10/14 07:13:42;;;;;;;62.83;39.07;;;;;;;;;;5023704;28;20271;-44
2022/10/14 07:16:08;;;;;;;66.80;41.33;;;;;;;;;;5022204;28;20185;-44
2022/10/14 07:18:34;;;;;;;66.13;42.27;;;;;;;;;;5020029;28;20569;-44
2022/10/14 07:21:02;;;;;;;66.20;39.47;;;;;;;;;;5021979;28;20184;-44
2022/10/14 07:23:28;;;;;;;61.53;39.00;;;;;;;;;;5023844;28;20171;-45
2022/10/14 07:25:58;;;;;;;65.03;40.50;;;;;;;;;;5025034;28;20203;-44
2022/10/14 07:28:24;;;;;;;68.93;40.03;;;;;;;;;;5020771;28;20200;-45
2022/10/14 07:30:58;;;;;;;62.67;41.03;;;;;;;;;;5023044;28;20532;-43
2022/10/14 07:33:24;;;;;;;64.57;37.33;;;;;;;;;;5016853;28;20676;-42
2022/10/14 07:35:50;;;;;;;55.37;36.33;;;;;;;;;;5021382;28;20180;-43
2022/10/14 07:38:17;;;;;;;55.10;35.93;;;;;;;;;;5022410;28;20520;-43
2022/10/14 07:40:44;;;;;;;52.40;35.10;;;;;;;;;;5018440;28;21011;-43
2022/10/14 07:43:11;;;;;;;59.47;35.30;;;;;;;;;;5019322;28;20631;-43
2022/10/14 07:45:42;;;;;;;49.43;31.03;;;;;;;;;;5028887;28;20176;-44
2022/10/14 07:48:09;;;;;;;46.70;30.67;;;;;;;;;;5031901;28;20176;-44
2022/10/14 07:50:35;;;;;;;48.10;30.83;;;;;;;;;;5030407;28;20719;-44
2022/10/14 07:53:01;;;;;;;46.83;30.43;;;;;;;;;;5024724;28;20291;-45
2022/10/14 07:55:27;;;;;;;45.27;29.77;;;;;;;;;;5024892;28;20218;-45
2022/10/14 07:57:53;;;;;;;39.83;27.77;;;;;;;;;;5024331;28;20587;-45
2022/10/14 08:00:19;;;;;;;42.93;29.13;;;;;;;;;;5022588;28;20183;-44
2022/10/14 08:02:45;;;;;;;42.53;29.50;;;;;;;;;;5019863;28;20281;-44
2022/10/14 08:05:11;;;;;;;54.70;30.27;;;;;;;;;;5023588;28;20184;-45
2022/10/14 08:07:37;;;;;;;40.67;27.03;;;;;;;;;;5026051;28;20693;-45
2022/10/14 08:10:03;;;;;;;40.73;27.17;;;;;;;;;;5024450;28;20183;-45
2022/10/14 08:12:30;;;;;;;44.97;28.53;;;;;;;;;;5022254;28;20168;-43
2022/10/14 08:14:56;;;;;;;45.23;27.80;;;;;;;;;;5021915;28;20320;-44
2022/10/14 08:17:22;;;;;;;45.47;29.60;;;;;;;;;;5024994;28;20301;-44
2022/10/14 08:19:49;;;;;;;43.50;28.17;;;;;;;;;;5025868;28;20801;-43
2022/10/14 08:22:15;;;;;;;39.17;27.97;;;;;;;;;;5022614;28;20685;-44
2022/10/14 08:24:41;;;;;;;33.67;23.83;;;;;;;;;;5021419;28;20175;-44
2022/10/14 08:27:09;;;;;;;39.33;23.77;;;;;;;;;;5021335;28;20180;-44
2022/10/14 08:29:35;;;;;;;36.37;24.40;;;;;;;;;;5024107;28;20521;-44
2022/10/14 08:32:01;;;;;;;38.97;27.10;;;;;;;;;;5021769;28;20180;-43
2022/10/14 08:34:27;;;;;;;39.50;25.93;;;;;;;;;;5026033;28;20784;-43
2022/10/14 08:36:53;;;;;;;43.10;27.87;;;;;;;;;;5025299;28;20622;-43
2022/10/14 08:39:20;;;;;;;41.50;27.80;;;;;;;;;;5022821;28;20203;-43
2022/10/14 08:42:01;;;;;;;45.40;29.10;;;;;;;;;;5026521;28;20521;-42
2022/10/14 08:44:33;;;;;;;37.60;27.27;;;;;;;;;;5027436;28;20661;-43
2022/10/14 08:47:00;;;;;;;35.23;25.13;;;;;;;;;;5029244;28;20187;-43
2022/10/14 08:49:41;;;;;;;35.40;25.20;;;;;;;;;;5028146;28;20182;-43
2022/10/14 08:52:10;;;;;;;41.10;26.30;;;;;;;;;;5023379;28;20171;-43
2022/10/14 08:54:37;;;;;;;40.97;27.27;;;;;;;;;;5024824;28;20374;-44
2022/10/14 08:57:04;;;;;;;41.47;27.60;;;;;;;;;;5026452;28;20184;-45
2022/10/14 08:59:32;;;;;;;37.57;26.63;;;;;;;;;;5022546;28;20207;-43
2022/10/14 09:02:01;;;;;;;36.00;27.67;;;;;;;;;;5024962;28;20181;-43
2022/10/14 09:04:27;;;;;;;37.90;27.23;;;;;;;;;;5026439;28;20536;-44
2022/10/14 09:06:54;;;;;;;42.47;26.70;;;;;;;;;;5026073;28;20634;-44
2022/10/14 09:09:48;;;;;;;45.57;28.47;;;;;;;;;;5027616;28;20641;-42
2022/10/14 09:12:16;;;;;;;38.20;27.47;;;;;;;;;;5022469;28;20318;-42
2022/10/14 09:14:45;;;;;;;37.47;26.47;;;;;;;;;;5023615;28;20175;-43
2022/10/14 09:17:15;;;;;;;36.43;26.43;;;;;;;;;;5021302;28;20568;-43
2022/10/14 09:19:50;;;;;;;41.87;27.77;;;;;;;;;;5020531;28;20211;-43
2022/10/14 09:22:16;;;;;;;42.50;28.03;;;;;;;;;;5017428;28;21831;-43
2022/10/14 09:24:45;;;;;;;44.13;27.53;;;;;;;;;;5019384;28;20175;-43
2022/10/14 09:27:20;;;;;;;37.07;27.10;;;;;;;;;;5023618;28;20268;-42
2022/10/14 09:29:48;;;;;;;44.30;27.97;;;;;;;;;;5024472;28;20194;-43
2022/10/14 09:32:22;;;;;;;40.43;28.60;;;;;;;;;;5016727;28;20179;-43
2022/10/14 09:34:50;;;;;;;36.67;26.47;;;;;;;;;;5019439;28;20737;-43
2022/10/14 09:37:19;;;;;;;36.57;27.10;;;;;;;;;;5018873;28;20183;-43
2022/10/14 09:39:45;;;;;;;38.90;26.93;;;;;;;;;;5021555;28;21238;-43
2022/10/14 09:42:15;;;;;;;43.47;28.40;;;;;;;;;;5017685;28;20175;-42
2022/10/14 09:44:41;;;;;;;37.47;26.93;;;;;;;;;;5017085;28;20413;-43
2022/10/14 09:47:10;;;;;;;39.47;27.80;;;;;;;;;;5018953;28;20250;-42
2022/10/14 09:49:40;;;;;;;39.77;27.97;;;;;;;;;;5020284;28;21381;-42
2022/10/14 09:52:07;;;;;;;40.03;27.47;;;;;;;;;;5025757;28;21283;-42
2022/10/14 09:54:34;;;;;;;47.13;28.03;;;;;;;;;;5022105;28;20712;-42
2022/10/14 09:57:07;;;;;;;44.50;28.90;;;;;;;;;;5020748;28;20951;-42
2022/10/14 09:59:38;;;;;;;42.27;28.80;;;;;;;;;;5021708;28;20437;-43
2022/10/14 10:02:06;;;;;;;43.70;29.10;;;;;;;;;;5025592;28;20777;-43
2022/10/14 10:04:32;;;;;;;36.17;27.60;;;;;;;;;;5023517;28;20751;-42
2022/10/14 10:07:00;;;;;;;39.63;29.27;;;;;;;;;;5020302;28;21045;-43
2022/10/14 10:09:26;;;;;;;47.43;28.00;;;;;;;;;;5021753;28;20186;-43
2022/10/14 10:11:52;;;;;;;39.27;27.37;;;;;;;;;;5018974;28;20476;-43
2022/10/14 10:14:45;;;;;;;48.20;30.70;;;;;;;;;;5020373;28;20183;-42
2022/10/14 10:17:13;;;;;;;42.20;30.07;;;;;;;;;;5019794;28;20497;-43
2022/10/14 10:19:43;;;;;;;42.60;30.53;;;;;;;;;;5020710;28;20543;-43
2022/10/14 10:22:19;;;;;;;43.80;29.90;;;;;;;;;;5024242;28;20939;-42
2022/10/14 10:24:45;;;;;;;42.23;29.73;;;;;;;;;;5025516;28;20627;-43
2022/10/14 10:27:23;;;;;;;43.23;29.07;;;;;;;;;;5026342;28;20267;-45
2022/10/14 10:29:49;;;;;;;40.27;30.50;;;;;;;;;;5023562;28;20599;-41
2022/10/14 10:32:18;;;;;;;43.47;31.20;;;;;;;;;;5020822;28;20500;-41
2022/10/14 10:34:53;;;;;;;43.37;29.97;;;;;;;;;;5024323;28;20506;-43
2022/10/14 10:37:37;;;;;;;47.80;29.93;;;;;;;;;;5026535;28;20739;-42
2022/10/14 10:40:06;;;;;;;42.50;29.67;;;;;;;;;;5023622;28;20279;-44
2022/10/14 10:42:42;;;;;;;39.00;28.37;;;;;;;;;;5025969;28;20180;-41
2022/10/14 10:45:08;;;;;;;35.60;26.17;;;;;;;;;;5025084;28;20862;-42
2022/10/14 10:47:37;;;;;;;35.80;26.80;;;;;;;;;;5023330;28;20471;-41
2022/10/14 10:50:09;;;;;;;44.07;30.20;;;;;;;;;;5026252;28;20716;-43
2022/10/14 10:52:42;;;;;;;43.30;28.70;;;;;;;;;;5027286;28;20188;-43
2022/10/14 10:55:11;;;;;;;37.87;26.80;;;;;;;;;;5023093;28;20182;-44
2022/10/14 10:57:56;;;;;;;43.70;30.00;;;;;;;;;;5025171;28;20183;-44
2022/10/14 11:00:23;;;;;;;43.67;29.57;;;;;;;;;;5025130;28;20654;-44
2022/10/14 11:02:53;;;;;;;41.20;28.83;;;;;;;;;;5025376;28;20203;-41
2022/10/14 11:05:38;;;;;;;39.00;25.90;;;;;;;;;;5023471;28;20199;-41
2022/10/14 11:14:25;;;;;;;45.00;30.40;;;;;;;;;;5026581;28;20349;-43
2022/10/14 11:17:03;;;;;;;40.60;29.57;;;;;;;;;;5025435;28;20587;-43
2022/10/14 11:19:40;;;;;;;43.80;30.17;;;;;;;;;;5029695;28;20668;-43
2022/10/14 11:22:18;;;;;;;43.17;28.00;;;;;;;;;;5030491;28;20600;-43
2022/10/14 11:24:44;;;;;;;41.50;29.40;;;;;;;;;;5028218;28;20164;-43
2022/10/14 11:27:28;;;;;;;35.90;27.43;;;;;;;;;;5026792;28;20188;-45
2022/10/14 11:30:07;;;;;;;36.47;26.47;;;;;;;;;;5027101;28;20476;-42
2022/10/14 11:32:47;;;;;;;37.50;26.63;;;;;;;;;;5029472;28;20863;-42
2022/10/14 11:35:16;;;;;;;39.17;26.97;;;;;;;;;;5031185;28;20202;-42
2022/10/14 11:37:54;;;;;;;35.87;24.60;;;;;;;;;;5030798;28;20270;-44
2022/10/14 11:40:43;;;;;;;39.20;28.23;;;;;;;;;;5026796;28;20314;-44
2022/10/14 11:43:21;;;;;;;40.90;28.17;;;;;;;;;;5024955;28;20699;-44
2022/10/14 11:46:01;;;;;;;38.80;27.47;;;;;;;;;;5026947;28;20761;-44
2022/10/14 11:48:29;;;;;;;37.33;26.40;;;;;;;;;;5030651;28;20184;-44
2022/10/14 11:51:05;;;;;;;36.63;27.10;;;;;;;;;;5029326;28;20282;-44
2022/10/14 11:53:34;;;;;;;39.20;27.93;;;;;;;;;;5027860;28;20179;-44
2022/10/14 11:56:23;;;;;;;35.37;24.93;;;;;;;;;;5025148;28;20655;-44
2022/10/14 11:58:51;;;;;;;35.30;25.97;;;;;;;;;;5010597;28;20207;-44
2022/10/14 12:01:21;;;;;;;32.30;25.47;;;;;;;;;;5028910;28;20609;-44
2022/10/14 12:03:49;;;;;;;37.03;27.30;;;;;;;;;;5025395;28;20545;-44
2022/10/14 12:06:22;;;;;;;34.60;26.33;;;;;;;;;;5023610;28;20504;-44
2022/10/14 12:08:59;;;;;;;38.13;27.43;;;;;;;;;;5025361;28;20662;-44
2022/10/14 12:11:35;;;;;;;36.17;26.67;;;;;;;;;;5023890;28;20824;-44
2022/10/14 12:14:05;;;;;;;43.10;27.60;;;;;;;;;;5028948;28;20179;-44
2022/10/14 12:16:32;;;;;;;38.80;26.47;;;;;;;;;;5027806;28;21616;-44
2022/10/14 12:18:58;;;;;;;41.50;27.70;;;;;;;;;;5025406;28;20206;-44
2022/10/14 12:21:27;;;;;;;35.80;26.10;;;;;;;;;;5025572;28;20179;-45
2022/10/14 12:24:04;;;;;;;34.13;24.83;;;;;;;;;;5028885;28;20584;-43
2022/10/14 12:26:43;;;;;;;33.77;24.37;;;;;;;;;;5027697;28;20172;-43
2022/10/14 12:29:12;;;;;;;36.13;26.77;;;;;;;;;;5027455;28;20783;-42
2022/10/14 12:31:38;;;;;;;38.57;28.40;;;;;;;;;;5026024;28;20616;-42
2022/10/14 12:34:12;;;;;;;43.50;29.43;;;;;;;;;;5029336;28;20179;-42
2022/10/14 12:36:39;;;;;;;39.40;28.93;;;;;;;;;;5028647;28;20295;-43
2022/10/14 12:39:31;;;;;;;37.33;28.07;;;;;;;;;;5028874;28;20384;-43
2022/10/14 12:41:57;;;;;;;40.03;27.87;;;;;;;;;;5017571;28;20202;-44
2022/10/14 12:44:25;;;;;;;39.43;28.13;;;;;;;;;;5020519;28;20350;-44
2022/10/14 12:46:52;;;;;;;40.37;28.93;;;;;;;;;;5026835;28;20214;-44
2022/10/14 12:49:28;;;;;;;36.37;27.77;;;;;;;;;;5023782;28;20232;-44
2022/10/14 12:51:54;;;;;;;34.73;25.93;;;;;;;;;;5016377;28;20247;-44
2022/10/14 12:54:21;;;;;;;38.43;25.83;;;;;;;;;;5021125;28;20660;-44
2022/10/14 12:57:06;;;;;;;37.00;26.83;;;;;;;;;;5023942;28;20625;-43
2022/10/14 12:59:35;;;;;;;34.70;26.47;;;;;;;;;;5026726;28;20198;-43
2022/10/14 13:02:24;;;;;;;38.83;27.77;;;;;;;;;;5024069;28;20249;-44
2022/10/14 13:04:51;;;;;;;36.07;27.57;;;;;;;;;;5015893;28;20191;-44
2022/10/14 13:07:17;;;;;;;33.57;25.13;;;;;;;;;;5026986;28;20179;-42
2022/10/14 13:09:44;;;;;;;37.67;25.93;;;;;;;;;;5025877;28;20736;-42
2022/10/14 13:12:30;;;;;;;39.93;28.37;;;;;;;;;;5027855;28;20548;-43
2022/10/14 13:14:58;;;;;;;36.37;27.47;;;;;;;;;;5024135;28;20179;-43
2022/10/14 13:17:28;;;;;;;34.63;26.07;;;;;;;;;;5027669;28;20544;-43
2022/10/14 13:19:54;;;;;;;37.10;26.30;;;;;;;;;;5024763;28;20210;-43
2022/10/14 13:22:30;;;;;;;38.53;28.23;;;;;;;;;;5024441;28;20608;-43
2022/10/14 13:25:16;;;;;;;38.47;27.80;;;;;;;;;;5022414;28;20401;-43
2022/10/14 13:27:55;;;;;;;34.17;25.17;;;;;;;;;;5016041;28;20196;-42
2022/10/14 13:30:36;;;;;;;32.30;24.70;;;;;;;;;;5022534;28;20183;-43
2022/10/14 13:33:21;;;;;;;35.43;24.97;;;;;;;;;;5019513;28;20355;-42
2022/10/14 13:35:53;;;;;;;32.80;24.90;;;;;;;;;;5019150;28;21306;-43
2022/10/14 13:38:20;;;;;;;31.60;24.47;;;;;;;;;;5018235;28;20304;-42
2022/10/14 13:40:48;;;;;;;35.17;24.67;;;;;;;;;;5024151;28;20936;-43
2022/10/14 13:43:14;;;;;;;31.87;23.07;;;;;;;;;;5021681;28;20172;-42
2022/10/14 13:45:42;;;;;;;30.97;23.97;;;;;;;;;;5019381;28;20179;-44
2022/10/14 13:48:16;;;;;;;37.60;25.77;;;;;;;;;;5020718;28;20658;-43
2022/10/14 13:50:42;;;;;;;31.20;23.20;;;;;;;;;;5018880;28;20660;-43
2022/10/14 13:53:17;;;;;;;38.40;26.00;;;;;;;;;;5024409;28;20638;-43
2022/10/14 13:55:47;;;;;;;38.33;25.27;;;;;;;;;;5021295;28;20183;-42
2022/10/14 13:58:14;;;;;;;30.90;22.03;;;;;;;;;;5019892;28;20276;-43
2022/10/14 14:00:42;;;;;;;40.60;24.70;;;;;;;;;;5019919;28;20280;-43
2022/10/14 14:03:16;;;;;;;34.73;25.97;;;;;;;;;;5025331;28;20184;-43
2022/10/14 14:05:42;;;;;;;36.07;24.10;;;;;;;;;;5025258;28;20190;-43
2022/10/14 14:08:15;;;;;;;34.20;22.97;;;;;;;;;;5024261;28;20624;-43
2022/10/14 14:10:49;;;;;;;33.37;23.17;;;;;;;;;;5024634;28;20913;-43
2022/10/14 14:13:16;;;;;;;34.53;23.37;;;;;;;;;;5024283;28;20178;-43
2022/10/14 14:15:42;;;;;;;32.67;22.00;;;;;;;;;;5024557;28;20622;-43
2022/10/14 14:18:44;;;;;;;34.90;24.13;;;;;;;;;;5027272;28;20175;-43
2022/10/14 14:21:12;;;;;;;31.63;24.20;;;;;;;;;;5008062;28;20171;-43
2022/10/14 14:23:48;;;;;;;32.67;23.83;;;;;;;;;;5019944;28;20185;-43
2022/10/14 14:26:14;;;;;;;34.77;24.40;;;;;;;;;;5023476;28;20763;-42
2022/10/14 14:28:40;;;;;;;34.97;25.57;;;;;;;;;;5022457;28;20914;-43
2022/10/14 14:31:07;;;;;;;36.90;23.83;;;;;;;;;;5025275;28;20285;-43
2022/10/14 14:33:34;;;;;;;30.43;23.23;;;;;;;;;;5022452;28;20283;-43
2022/10/14 14:36:08;;;;;;;34.10;24.40;;;;;;;;;;5021681;28;20176;-43